sensor_id;sensor_type;location;lat;lon;timestamp;pressure;altitude;pressure_sealevel;temperature;humidity
81628;BME280;71036;51.102;6.514;2023-07-22T00:00:14;100768.03;;;13.65;70.51
81628;BME280;71036;51.102;6.514;2023-07-22T00:02:41;100767.03;;;13.66;70.48
81628;BME280;71036;51.102;6.514;2023-07-22T00:05:07;100772.44;;;13.66;70.86
81628;BME280;71036;51.102;6.514;2023-07-22T00:07:32;100771.88;;;13.72;70.54
81628;BME280;71036;51.102;6.514;2023-07-22T00:09:58;100772.31;;;13.77;70.74
81628;BME280;71036;51.102;6.514;2023-07-22T00:12:24;100763.94;;;13.80;70.46
81628;BME280;71036;51.102;6.514;2023-07-22T00:14:51;100773.50;;;13.84;70.53
81628;BME280;71036;51.102;6.514;2023-07-22T00:17:16;100773.13;;;13.88;70.02
81628;BME280;71036;51.102;6.514;2023-07-22T00:19:41;100765.56;;;13.92;69.88
81628;BME280;71036;51.102;6.514;2023-07-22T00:22:07;100762.84;;;13.92;69.64
81628;BME280;71036;51.102;6.514;2023-07-22T00:24:32;100768.69;;;13.87;69.50
81628;BME280;71036;51.102;6.514;2023-07-22T00:26:57;100766.09;;;13.86;69.40
81628;BME280;71036;51.102;6.514;2023-07-22T00:29:22;100773.50;;;13.84;69.26
81628;BME280;71036;51.102;6.514;2023-07-22T00:31:48;100759.66;;;13.77;69.11
81628;BME280;71036;51.102;6.514;2023-07-22T00:34:14;100765.53;;;13.82;68.93
81628;BME280;71036;51.102;6.514;2023-07-22T00:36:39;100771.06;;;13.81;69.41
81628;BME280;71036;51.102;6.514;2023-07-22T00:39:04;100761.78;;;13.74;68.11
81628;BME280;71036;51.102;6.514;2023-07-22T00:41:30;100765.44;;;13.63;68.48
81628;BME280;71036;51.102;6.514;2023-07-22T00:43:55;100758.91;;;13.56;69.06
81628;BME280;71036;51.102;6.514;2023-07-22T00:46:21;100766.19;;;13.44;69.32
81628;BME280;71036;51.102;6.514;2023-07-22T00:48:47;100762.59;;;13.34;69.76
81628;BME280;71036;51.102;6.514;2023-07-22T00:51:12;100760.28;;;13.30;69.54
81628;BME280;71036;51.102;6.514;2023-07-22T00:53:38;100764.38;;;13.24;69.47
81628;BME280;71036;51.102;6.514;2023-07-22T00:56:04;100755.97;;;13.18;69.72
81628;BME280;71036;51.102;6.514;2023-07-22T00:58:29;100757.06;;;13.15;69.89
81628;BME280;71036;51.102;6.514;2023-07-22T01:00:55;100751.22;;;13.10;69.61
81628;BME280;71036;51.102;6.514;2023-07-22T01:03:20;100752.19;;;13.09;69.78
81628;BME280;71036;51.102;6.514;2023-07-22T01:05:46;100755.75;;;13.10;69.71
81628;BME280;71036;51.102;6.514;2023-07-22T01:08:13;100753.19;;;13.08;69.54
81628;BME280;71036;51.102;6.514;2023-07-22T01:10:39;100755.91;;;13.08;69.44
81628;BME280;71036;51.102;6.514;2023-07-22T01:13:04;100751.38;;;13.09;69.04
81628;BME280;71036;51.102;6.514;2023-07-22T01:15:30;100744.09;;;13.09;69.04
81628;BME280;71036;51.102;6.514;2023-07-22T01:17:56;100744.84;;;13.11;68.82
81628;BME280;71036;51.102;6.514;2023-07-22T01:20:22;100748.25;;;13.13;68.87
81628;BME280;71036;51.102;6.514;2023-07-22T01:22:52;100744.97;;;13.10;68.96
81628;BME280;71036;51.102;6.514;2023-07-22T01:25:19;100744.25;;;13.08;69.03
81628;BME280;71036;51.102;6.514;2023-07-22T01:27:45;100746.53;;;13.12;68.72
81628;BME280;71036;51.102;6.514;2023-07-22T01:30:11;100744.69;;;13.13;68.55
81628;BME280;71036;51.102;6.514;2023-07-22T01:32:36;100738.16;;;13.15;68.37
81628;BME280;71036;51.102;6.514;2023-07-22T01:35:01;100734.38;;;13.18;68.52
81628;BME280;71036;51.102;6.514;2023-07-22T01:37:27;100740.16;;;13.13;68.32
81628;BME280;71036;51.102;6.514;2023-07-22T01:39:52;100737.72;;;13.10;68.44
81628;BME280;71036;51.102;6.514;2023-07-22T01:42:18;100733.81;;;13.03;68.82
81628;BME280;71036;51.102;6.514;2023-07-22T01:44:43;100736.03;;;12.98;68.90
81628;BME280;71036;51.102;6.514;2023-07-22T01:47:08;100728.94;;;12.97;68.91
81628;BME280;71036;51.102;6.514;2023-07-22T01:49:33;100727.03;;;12.88;69.26
81628;BME280;71036;51.102;6.514;2023-07-22T01:51:59;100733.81;;;12.82;69.30
81628;BME280;71036;51.102;6.514;2023-07-22T01:54:25;100729.78;;;12.77;69.81
81628;BME280;71036;51.102;6.514;2023-07-22T01:56:50;100727.06;;;12.77;69.85
81628;BME280;71036;51.102;6.514;2023-07-22T01:59:16;100729.78;;;12.77;70.13
81628;BME280;71036;51.102;6.514;2023-07-22T02:01:41;100731.63;;;12.76;70.15
81628;BME280;71036;51.102;6.514;2023-07-22T02:04:07;100725.50;;;12.74;69.86
81628;BME280;71036;51.102;6.514;2023-07-22T02:06:32;100732.88;;;12.72;70.19
81628;BME280;71036;51.102;6.514;2023-07-22T02:08:57;100728.72;;;12.68;70.20
81628;BME280;71036;51.102;6.514;2023-07-22T02:11:23;100728.72;;;12.68;70.38
81628;BME280;71036;51.102;6.514;2023-07-22T02:13:48;100735.13;;;12.67;70.34
81628;BME280;71036;51.102;6.514;2023-07-22T02:16:13;100725.28;;;12.66;70.51
81628;BME280;71036;51.102;6.514;2023-07-22T02:18:39;100725.44;;;12.65;70.43
81628;BME280;71036;51.102;6.514;2023-07-22T02:21:04;100726.00;;;12.68;70.46
81628;BME280;71036;51.102;6.514;2023-07-22T02:23:29;100713.53;;;12.67;70.16
81628;BME280;71036;51.102;6.514;2023-07-22T02:25:54;100716.56;;;12.74;70.11
81628;BME280;71036;51.102;6.514;2023-07-22T02:28:20;100715.97;;;12.70;70.14
81628;BME280;71036;51.102;6.514;2023-07-22T02:30:51;100716.94;;;12.69;70.20
81628;BME280;71036;51.102;6.514;2023-07-22T02:33:18;100710.22;;;12.64;70.58
81628;BME280;71036;51.102;6.514;2023-07-22T02:35:44;100723.97;;;12.61;70.81
81628;BME280;71036;51.102;6.514;2023-07-22T02:38:09;100717.88;;;12.59;70.52
81628;BME280;71036;51.102;6.514;2023-07-22T02:40:35;100721.78;;;12.55;70.83
81628;BME280;71036;51.102;6.514;2023-07-22T02:43:00;100719.09;;;12.55;70.84
81628;BME280;71036;51.102;6.514;2023-07-22T02:45:26;100718.13;;;12.56;70.79
81628;BME280;71036;51.102;6.514;2023-07-22T02:47:51;100721.19;;;12.51;71.19
81628;BME280;71036;51.102;6.514;2023-07-22T02:50:17;100725.41;;;12.44;70.96
81628;BME280;71036;51.102;6.514;2023-07-22T02:52:42;100719.66;;;12.38;71.65
81628;BME280;71036;51.102;6.514;2023-07-22T02:55:16;100720.78;;;12.35;71.88
81628;BME280;71036;51.102;6.514;2023-07-22T02:57:43;100720.28;;;12.30;71.74
81628;BME280;71036;51.102;6.514;2023-07-22T03:00:09;100727.53;;;12.29;71.87
81628;BME280;71036;51.102;6.514;2023-07-22T03:02:41;100723.88;;;12.19;72.21
81628;BME280;71036;51.102;6.514;2023-07-22T03:05:08;100720.72;;;12.14;72.94
81628;BME280;71036;51.102;6.514;2023-07-22T03:07:34;100727.22;;;12.12;72.75
81628;BME280;71036;51.102;6.514;2023-07-22T03:09:59;100734.31;;;12.13;72.37
81628;BME280;71036;51.102;6.514;2023-07-22T03:12:25;100733.44;;;12.12;72.87
81628;BME280;71036;51.102;6.514;2023-07-22T03:14:50;100735.19;;;12.13;72.51
81628;BME280;71036;51.102;6.514;2023-07-22T03:17:18;100740.47;;;12.15;72.46
81628;BME280;71036;51.102;6.514;2023-07-22T03:19:43;100736.75;;;12.16;72.93
81628;BME280;71036;51.102;6.514;2023-07-22T03:22:08;100729.69;;;12.15;72.64
81628;BME280;71036;51.102;6.514;2023-07-22T03:24:35;100730.66;;;12.14;72.89
81628;BME280;71036;51.102;6.514;2023-07-22T03:27:00;100733.09;;;12.17;73.11
81628;BME280;71036;51.102;6.514;2023-07-22T03:29:25;100731.97;;;12.19;72.84
81628;BME280;71036;51.102;6.514;2023-07-22T03:31:51;100736.75;;;12.27;72.83
81628;BME280;71036;51.102;6.514;2023-07-22T03:34:16;100735.25;;;12.34;72.18
81628;BME280;71036;51.102;6.514;2023-07-22T03:36:41;100735.84;;;12.38;72.28
81628;BME280;71036;51.102;6.514;2023-07-22T03:39:08;100738.16;;;12.42;72.44
81628;BME280;71036;51.102;6.514;2023-07-22T03:41:33;100739.63;;;12.46;72.30
81628;BME280;71036;51.102;6.514;2023-07-22T03:43:58;100742.06;;;12.49;71.79
81628;BME280;71036;51.102;6.514;2023-07-22T03:46:23;100742.91;;;12.50;71.77
81628;BME280;71036;51.102;6.514;2023-07-22T03:48:49;100731.88;;;12.53;71.66
81628;BME280;71036;51.102;6.514;2023-07-22T03:51:17;100734.16;;;12.57;71.84
81628;BME280;71036;51.102;6.514;2023-07-22T03:53:42;100725.81;;;12.60;71.79
81628;BME280;71036;51.102;6.514;2023-07-22T03:56:07;100743.22;;;12.67;71.66
81628;BME280;71036;51.102;6.514;2023-07-22T03:58:32;100733.84;;;12.71;71.28
81628;BME280;71036;51.102;6.514;2023-07-22T04:00:58;100735.31;;;12.75;71.17
81628;BME280;71036;51.102;6.514;2023-07-22T04:03:23;100731.63;;;12.76;70.48
81628;BME280;71036;51.102;6.514;2023-07-22T04:05:57;100744.88;;;12.79;71.14
81628;BME280;71036;51.102;6.514;2023-07-22T04:08:22;100737.88;;;12.77;71.30
81628;BME280;71036;51.102;6.514;2023-07-22T04:10:54;100741.91;;;12.82;71.43
81628;BME280;71036;51.102;6.514;2023-07-22T04:13:20;100740.78;;;12.85;71.44
81628;BME280;71036;51.102;6.514;2023-07-22T04:15:47;100743.59;;;12.83;71.56
81628;BME280;71036;51.102;6.514;2023-07-22T04:18:12;100733.94;;;12.81;71.85
81628;BME280;71036;51.102;6.514;2023-07-22T04:20:37;100737.94;;;12.86;71.79
81628;BME280;71036;51.102;6.514;2023-07-22T04:23:03;100736.53;;;12.82;71.39
81628;BME280;71036;51.102;6.514;2023-07-22T04:25:28;100748.75;;;12.86;71.79
81628;BME280;71036;51.102;6.514;2023-07-22T04:27:53;100749.59;;;12.87;72.04
81628;BME280;71036;51.102;6.514;2023-07-22T04:30:18;100752.50;;;12.95;72.03
81628;BME280;71036;51.102;6.514;2023-07-22T04:32:48;100751.13;;;13.01;71.72
81628;BME280;71036;51.102;6.514;2023-07-22T04:35:16;100746.31;;;13.04;71.96
81628;BME280;71036;51.102;6.514;2023-07-22T04:37:43;100744.25;;;13.08;71.60
81628;BME280;71036;51.102;6.514;2023-07-22T04:40:10;100742.00;;;13.13;71.31
81628;BME280;71036;51.102;6.514;2023-07-22T04:42:39;100746.75;;;13.20;71.41
81628;BME280;71036;51.102;6.514;2023-07-22T04:45:05;100745.75;;;13.21;71.36
81628;BME280;71036;51.102;6.514;2023-07-22T04:47:31;100744.50;;;13.25;71.11
81628;BME280;71036;51.102;6.514;2023-07-22T04:49:56;100741.63;;;13.27;70.96
81628;BME280;71036;51.102;6.514;2023-07-22T04:52:21;100748.69;;;13.39;70.68
81628;BME280;71036;51.102;6.514;2023-07-22T04:54:47;100743.47;;;13.47;70.29
81628;BME280;71036;51.102;6.514;2023-07-22T04:57:12;100746.47;;;13.44;70.09
81628;BME280;71036;51.102;6.514;2023-07-22T04:59:37;100742.97;;;13.32;70.46
81628;BME280;71036;51.102;6.514;2023-07-22T05:02:03;100743.09;;;13.31;71.01
81628;BME280;71036;51.102;6.514;2023-07-22T05:04:29;100746.78;;;13.30;71.01
81628;BME280;71036;51.102;6.514;2023-07-22T05:06:54;100746.78;;;13.30;70.88
81628;BME280;71036;51.102;6.514;2023-07-22T05:09:20;100737.50;;;13.23;71.04
81628;BME280;71036;51.102;6.514;2023-07-22T05:11:45;100738.22;;;13.25;70.83
81628;BME280;71036;51.102;6.514;2023-07-22T05:14:10;100731.41;;;13.21;71.07
81628;BME280;71036;51.102;6.514;2023-07-22T05:16:36;100749.91;;;13.25;71.38
81628;BME280;71036;51.102;6.514;2023-07-22T05:19:01;100747.97;;;13.37;70.47
81628;BME280;71036;51.102;6.514;2023-07-22T05:21:26;100750.66;;;13.37;70.59
81628;BME280;71036;51.102;6.514;2023-07-22T05:23:51;100745.88;;;13.40;70.54
81628;BME280;71036;51.102;6.514;2023-07-22T05:26:17;100756.47;;;13.53;69.74
81628;BME280;71036;51.102;6.514;2023-07-22T05:28:42;100753.19;;;13.59;69.67
81628;BME280;71036;51.102;6.514;2023-07-22T05:31:07;100757.16;;;13.55;70.18
81628;BME280;71036;51.102;6.514;2023-07-22T05:33:33;100752.47;;;13.57;69.77
81628;BME280;71036;51.102;6.514;2023-07-22T05:35:58;100752.63;;;13.56;69.78
81628;BME280;71036;51.102;6.514;2023-07-22T05:38:23;100758.31;;;13.62;70.21
81628;BME280;71036;51.102;6.514;2023-07-22T05:40:48;100760.47;;;13.59;70.41
81628;BME280;71036;51.102;6.514;2023-07-22T05:43:14;100766.31;;;13.64;70.22
81628;BME280;71036;51.102;6.514;2023-07-22T05:45:39;100768.19;;;13.73;70.20
81628;BME280;71036;51.102;6.514;2023-07-22T05:48:04;100757.28;;;13.84;69.40
81628;BME280;71036;51.102;6.514;2023-07-22T05:50:30;100762.88;;;14.01;68.69
81628;BME280;71036;51.102;6.514;2023-07-22T05:52:55;100754.84;;;14.21;67.92
81628;BME280;71036;51.102;6.514;2023-07-22T05:55:20;100753.75;;;14.42;67.54
81628;BME280;71036;51.102;6.514;2023-07-22T05:57:46;100747.63;;;14.59;66.66
81628;BME280;71036;51.102;6.514;2023-07-22T06:00:11;100737.81;;;14.78;66.04
81628;BME280;71036;51.102;6.514;2023-07-22T06:02:38;100746.22;;;14.84;65.62
81628;BME280;71036;51.102;6.514;2023-07-22T06:05:03;100746.06;;;15.05;65.60
81628;BME280;71036;51.102;6.514;2023-07-22T06:07:29;100743.44;;;15.32;64.20
81628;BME280;71036;51.102;6.514;2023-07-22T06:09:54;100747.06;;;15.60;64.30
81628;BME280;71036;51.102;6.514;2023-07-22T06:12:20;100735.19;;;15.98;62.67
81628;BME280;71036;51.102;6.514;2023-07-22T06:14:45;100743.66;;;16.12;61.61
81628;BME280;71036;51.102;6.514;2023-07-22T06:17:10;100735.41;;;16.14;61.39
81628;BME280;71036;51.102;6.514;2023-07-22T06:19:36;100738.59;;;16.27;61.27
81628;BME280;71036;51.102;6.514;2023-07-22T06:22:01;100745.44;;;16.04;61.96
81628;BME280;71036;51.102;6.514;2023-07-22T06:24:26;100743.38;;;16.15;62.13
81628;BME280;71036;51.102;6.514;2023-07-22T06:26:51;100750.84;;;16.31;62.37
81628;BME280;71036;51.102;6.514;2023-07-22T06:29:17;100752.72;;;16.31;62.09
81628;BME280;71036;51.102;6.514;2023-07-22T06:31:42;100748.66;;;16.17;62.48
81628;BME280;71036;51.102;6.514;2023-07-22T06:34:07;100747.94;;;16.15;62.06
81628;BME280;71036;51.102;6.514;2023-07-22T06:36:32;100747.97;;;16.33;62.09
81628;BME280;71036;51.102;6.514;2023-07-22T06:38:58;100754.81;;;16.37;61.60
81628;BME280;71036;51.102;6.514;2023-07-22T06:41:23;100751.28;;;16.54;61.60
81628;BME280;71036;51.102;6.514;2023-07-22T06:43:49;100750.53;;;16.61;61.64
81628;BME280;71036;51.102;6.514;2023-07-22T06:46:15;100752.59;;;16.67;61.36
81628;BME280;71036;51.102;6.514;2023-07-22T06:48:41;100757.72;;;16.70;61.46
81628;BME280;71036;51.102;6.514;2023-07-22T06:51:07;100757.97;;;16.77;61.25
81628;BME280;71036;51.102;6.514;2023-07-22T06:53:33;100750.41;;;16.89;62.22
81628;BME280;71036;51.102;6.514;2023-07-22T06:55:58;100749.41;;;16.90;60.53
81628;BME280;71036;51.102;6.514;2023-07-22T06:58:23;100755.16;;;16.87;60.78
81628;BME280;71036;51.102;6.514;2023-07-22T07:00:53;100759.50;;;16.97;61.00
81628;BME280;71036;51.102;6.514;2023-07-22T07:03:18;100750.91;;;16.84;61.51
81628;BME280;71036;51.102;6.514;2023-07-22T07:05:43;100752.44;;;17.04;60.76
81628;BME280;71036;51.102;6.514;2023-07-22T07:08:09;100749.78;;;17.12;59.90
81628;BME280;71036;51.102;6.514;2023-07-22T07:10:38;100757.25;;;17.10;60.03
81628;BME280;71036;51.102;6.514;2023-07-22T07:13:04;100752.53;;;17.20;59.79
81628;BME280;71036;51.102;6.514;2023-07-22T07:15:29;100757.97;;;17.64;59.23
81628;BME280;71036;51.102;6.514;2023-07-22T07:17:54;100753.38;;;17.64;58.30
81628;BME280;71036;51.102;6.514;2023-07-22T07:20:20;100765.19;;;17.29;58.94
81628;BME280;71036;51.102;6.514;2023-07-22T07:22:45;100756.84;;;17.23;59.58
81628;BME280;71036;51.102;6.514;2023-07-22T07:25:10;100750.53;;;17.22;59.88
81628;BME280;71036;51.102;6.514;2023-07-22T07:27:37;100755.88;;;17.14;59.81
81628;BME280;71036;51.102;6.514;2023-07-22T07:30:02;100752.50;;;17.12;60.23
81628;BME280;71036;51.102;6.514;2023-07-22T07:32:27;100754.66;;;17.09;59.85
81628;BME280;71036;51.102;6.514;2023-07-22T07:34:53;100755.03;;;17.31;59.57
81628;BME280;71036;51.102;6.514;2023-07-22T07:37:18;100759.59;;;17.82;58.50
81628;BME280;71036;51.102;6.514;2023-07-22T07:39:44;100757.19;;;17.79;58.26
81628;BME280;71036;51.102;6.514;2023-07-22T07:42:09;100764.75;;;17.93;58.03
81628;BME280;71036;51.102;6.514;2023-07-22T07:44:34;100759.78;;;18.23;57.29
81628;BME280;71036;51.102;6.514;2023-07-22T07:46:59;100761.47;;;18.32;56.67
81628;BME280;71036;51.102;6.514;2023-07-22T07:49:25;100766.03;;;18.49;56.48
81628;BME280;71036;51.102;6.514;2023-07-22T07:51:50;100767.66;;;18.42;55.72
81628;BME280;71036;51.102;6.514;2023-07-22T07:54:15;100768.75;;;18.49;55.94
81628;BME280;71036;51.102;6.514;2023-07-22T07:56:41;100766.22;;;18.64;55.20
81628;BME280;71036;51.102;6.514;2023-07-22T07:59:06;100758.97;;;18.38;55.85
81628;BME280;71036;51.102;6.514;2023-07-22T08:01:33;100762.25;;;18.50;56.21
81628;BME280;71036;51.102;6.514;2023-07-22T08:04:00;100764.28;;;18.48;55.89
81628;BME280;71036;51.102;6.514;2023-07-22T08:06:25;100763.16;;;18.17;56.27
81628;BME280;71036;51.102;6.514;2023-07-22T08:08:51;100759.47;;;18.34;56.11
81628;BME280;71036;51.102;6.514;2023-07-22T08:11:16;100759.91;;;18.63;54.95
81628;BME280;71036;51.102;6.514;2023-07-22T08:13:43;100756.00;;;18.74;54.07
81628;BME280;71036;51.102;6.514;2023-07-22T08:16:10;100759.41;;;19.32;53.57
81628;BME280;71036;51.102;6.514;2023-07-22T08:18:36;100766.72;;;19.32;52.88
81628;BME280;71036;51.102;6.514;2023-07-22T08:21:02;100762.84;;;19.34;52.17
81628;BME280;71036;51.102;6.514;2023-07-22T08:23:28;100767.63;;;19.48;51.94
81628;BME280;71036;51.102;6.514;2023-07-22T08:25:54;100761.22;;;19.80;50.82
81628;BME280;71036;51.102;6.514;2023-07-22T08:28:19;100766.50;;;20.29;49.66
81628;BME280;71036;51.102;6.514;2023-07-22T08:30:44;100758.59;;;20.87;48.28
81628;BME280;71036;51.102;6.514;2023-07-22T08:33:11;100755.25;;;21.60;46.59
81628;BME280;71036;51.102;6.514;2023-07-22T08:35:37;100751.81;;;22.46;44.07
81628;BME280;71036;51.102;6.514;2023-07-22T08:38:03;100748.00;;;20.92;46.98
81628;BME280;71036;51.102;6.514;2023-07-22T08:40:38;100746.03;;;21.01;47.28
81628;BME280;71036;51.102;6.514;2023-07-22T08:43:06;100744.81;;;21.26;45.60
81628;BME280;71036;51.102;6.514;2023-07-22T08:45:32;100745.84;;;22.06;44.54
81628;BME280;71036;51.102;6.514;2023-07-22T08:48:03;100751.66;;;21.59;44.48
81628;BME280;71036;51.102;6.514;2023-07-22T08:50:45;100743.53;;;22.75;42.46
81628;BME280;71036;51.102;6.514;2023-07-22T08:53:14;100740.28;;;22.86;41.68
81628;BME280;71036;51.102;6.514;2023-07-22T08:55:41;100738.44;;;22.93;41.62
81628;BME280;71036;51.102;6.514;2023-07-22T08:58:10;100744.16;;;23.40;40.93
81628;BME280;71036;51.102;6.514;2023-07-22T09:00:37;100741.13;;;23.63;40.90
81628;BME280;71036;51.102;6.514;2023-07-22T09:03:03;100728.41;;;23.90;39.74
81628;BME280;71036;51.102;6.514;2023-07-22T09:05:31;100736.22;;;23.03;40.82
81628;BME280;71036;51.102;6.514;2023-07-22T09:07:57;100748.00;;;22.11;41.46
81628;BME280;71036;51.102;6.514;2023-07-22T09:10:24;100743.97;;;21.40;42.78
81628;BME280;71036;51.102;6.514;2023-07-22T09:12:51;100746.69;;;22.07;42.33
81628;BME280;71036;51.102;6.514;2023-07-22T09:15:17;100741.41;;;23.19;40.77
81628;BME280;71036;51.102;6.514;2023-07-22T09:17:44;100739.19;;;23.85;39.80
81628;BME280;71036;51.102;6.514;2023-07-22T09:20:11;100742.16;;;23.07;40.80
81628;BME280;71036;51.102;6.514;2023-07-22T09:22:43;100755.34;;;22.75;41.87
81628;BME280;71036;51.102;6.514;2023-07-22T09:25:17;100748.13;;;22.89;42.07
81628;BME280;71036;51.102;6.514;2023-07-22T09:27:44;100744.59;;;22.23;42.70
81628;BME280;71036;51.102;6.514;2023-07-22T09:30:23;100750.66;;;21.60;44.62
81628;BME280;71036;51.102;6.514;2023-07-22T09:32:50;100751.28;;;21.62;43.35
81628;BME280;71036;51.102;6.514;2023-07-22T09:35:17;100747.91;;;22.55;43.03
81628;BME280;71036;51.102;6.514;2023-07-22T09:37:42;100741.56;;;22.90;42.03
81628;BME280;71036;51.102;6.514;2023-07-22T09:40:19;100742.03;;;22.94;41.98
81628;BME280;71036;51.102;6.514;2023-07-22T09:42:46;100740.53;;;22.55;42.03
81628;BME280;71036;51.102;6.514;2023-07-22T09:45:11;100740.44;;;22.49;42.36
81628;BME280;71036;51.102;6.514;2023-07-22T09:47:41;100750.56;;;22.12;43.68
81628;BME280;71036;51.102;6.514;2023-07-22T09:50:06;100747.69;;;23.13;42.19
81628;BME280;71036;51.102;6.514;2023-07-22T09:52:32;100752.63;;;23.73;39.99
81628;BME280;71036;51.102;6.514;2023-07-22T09:54:58;100740.44;;;23.82;38.92
81628;BME280;71036;51.102;6.514;2023-07-22T09:57:24;100734.84;;;24.04;39.42
81628;BME280;71036;51.102;6.514;2023-07-22T09:59:51;100741.78;;;23.99;38.54
81628;BME280;71036;51.102;6.514;2023-07-22T10:02:18;100752.06;;;23.29;39.78
81628;BME280;71036;51.102;6.514;2023-07-22T10:04:45;100738.31;;;23.50;39.70
81628;BME280;71036;51.102;6.514;2023-07-22T10:07:13;100736.31;;;24.47;38.08
81628;BME280;71036;51.102;6.514;2023-07-22T10:09:40;100735.81;;;24.91;37.38
81628;BME280;71036;51.102;6.514;2023-07-22T10:12:06;100728.84;;;25.01;37.11
81628;BME280;71036;51.102;6.514;2023-07-22T10:14:32;100740.22;;;26.03;35.09
81628;BME280;71036;51.102;6.514;2023-07-22T10:16:59;100729.41;;;24.71;37.32
81628;BME280;71036;51.102;6.514;2023-07-22T10:19:25;100729.53;;;24.36;36.90
81628;BME280;71036;51.102;6.514;2023-07-22T10:21:51;100739.19;;;24.93;36.05
81628;BME280;71036;51.102;6.514;2023-07-22T10:24:17;100733.97;;;25.50;33.43
81628;BME280;71036;51.102;6.514;2023-07-22T10:26:43;100727.69;;;24.57;35.44
81628;BME280;71036;51.102;6.514;2023-07-22T10:29:11;100724.00;;;25.03;36.15
81628;BME280;71036;51.102;6.514;2023-07-22T10:31:37;100726.75;;;25.23;34.20
81628;BME280;71036;51.102;6.514;2023-07-22T10:34:03;100723.00;;;24.57;35.13
81628;BME280;71036;51.102;6.514;2023-07-22T10:36:29;100718.94;;;24.40;36.91
81628;BME280;71036;51.102;6.514;2023-07-22T10:38:56;100714.72;;;24.37;36.17
81628;BME280;71036;51.102;6.514;2023-07-22T10:41:22;100709.28;;;24.64;35.92
81628;BME280;71036;51.102;6.514;2023-07-22T10:43:55;100709.25;;;24.44;36.29
81628;BME280;71036;51.102;6.514;2023-07-22T10:46:32;100705.34;;;24.86;35.48
81628;BME280;71036;51.102;6.514;2023-07-22T10:51:39;100707.25;;;25.44;34.31
81628;BME280;71036;51.102;6.514;2023-07-22T10:54:12;100705.16;;;26.61;33.53
81628;BME280;71036;51.102;6.514;2023-07-22T10:56:40;100697.19;;;27.95;31.79
81628;BME280;71036;51.102;6.514;2023-07-22T10:59:05;100690.19;;;27.32;31.53
81628;BME280;71036;51.102;6.514;2023-07-22T11:01:33;100690.78;;;26.15;33.17
81628;BME280;71036;51.102;6.514;2023-07-22T11:11:59;100680.78;;;24.84;36.40
81628;BME280;71036;51.102;6.514;2023-07-22T11:14:26;100679.63;;;24.46;36.00
81628;BME280;71036;51.102;6.514;2023-07-22T11:16:52;100681.81;;;25.62;35.76
81628;BME280;71036;51.102;6.514;2023-07-22T11:19:19;100675.03;;;25.38;35.06
81628;BME280;71036;51.102;6.514;2023-07-22T11:21:46;100674.84;;;25.59;34.87
81628;BME280;71036;51.102;6.514;2023-07-22T11:24:13;100669.34;;;24.87;36.20
81628;BME280;71036;51.102;6.514;2023-07-22T11:26:39;100663.16;;;24.79;35.76
81628;BME280;71036;51.102;6.514;2023-07-22T11:29:06;100672.53;;;25.24;34.53
81628;BME280;71036;51.102;6.514;2023-07-22T11:31:41;100683.94;;;25.34;33.84
81628;BME280;71036;51.102;6.514;2023-07-22T11:34:08;100681.59;;;25.63;34.71
81628;BME280;71036;51.102;6.514;2023-07-22T11:36:34;100675.31;;;26.45;32.73
81628;BME280;71036;51.102;6.514;2023-07-22T11:39:08;100679.59;;;26.48;32.88
81628;BME280;71036;51.102;6.514;2023-07-22T11:41:34;100669.59;;;26.78;31.66
81628;BME280;71036;51.102;6.514;2023-07-22T11:44:01;100671.31;;;27.28;31.34
81628;BME280;71036;51.102;6.514;2023-07-22T11:46:28;100667.41;;;26.55;31.86
81628;BME280;71036;51.102;6.514;2023-07-22T11:48:54;100664.66;;;26.24;32.75
81628;BME280;71036;51.102;6.514;2023-07-22T11:51:21;100661.41;;;25.83;33.64
81628;BME280;71036;51.102;6.514;2023-07-22T11:53:51;100655.78;;;26.09;33.37
81628;BME280;71036;51.102;6.514;2023-07-22T11:56:25;100649.75;;;26.32;33.42
81628;BME280;71036;51.102;6.514;2023-07-22T11:58:53;100657.66;;;25.57;34.51
81628;BME280;71036;51.102;6.514;2023-07-22T12:01:19;100650.56;;;25.88;33.29
81628;BME280;71036;51.102;6.514;2023-07-22T12:03:44;100637.06;;;26.24;32.45
81628;BME280;71036;51.102;6.514;2023-07-22T12:06:10;100655.31;;;25.54;33.20
81628;BME280;71036;51.102;6.514;2023-07-22T12:08:43;100651.13;;;25.32;34.54
81628;BME280;71036;51.102;6.514;2023-07-22T12:11:24;100646.28;;;24.88;34.83
81628;BME280;71036;51.102;6.514;2023-07-22T12:14:10;100633.94;;;25.56;31.95
81628;BME280;71036;51.102;6.514;2023-07-22T12:16:37;100634.19;;;25.99;30.09
81628;BME280;71036;51.102;6.514;2023-07-22T12:19:03;100626.78;;;27.43;28.97
81628;BME280;71036;51.102;6.514;2023-07-22T12:21:28;100617.94;;;26.29;28.59
81628;BME280;71036;51.102;6.514;2023-07-22T12:23:53;100614.22;;;25.46;29.12
81628;BME280;71036;51.102;6.514;2023-07-22T12:26:19;100617.22;;;25.32;29.53
81628;BME280;71036;51.102;6.514;2023-07-22T12:28:44;100618.03;;;25.45;29.00
81628;BME280;71036;51.102;6.514;2023-07-22T12:31:10;100617.88;;;25.14;29.63
81628;BME280;71036;51.102;6.514;2023-07-22T12:33:35;100619.78;;;25.20;29.73
81628;BME280;71036;51.102;6.514;2023-07-22T12:36:00;100619.41;;;25.03;29.21
81628;BME280;71036;51.102;6.514;2023-07-22T12:38:26;100615.97;;;24.62;29.89
81628;BME280;71036;51.102;6.514;2023-07-22T12:40:51;100609.41;;;25.22;29.06
81628;BME280;71036;51.102;6.514;2023-07-22T12:43:16;100601.56;;;25.90;30.07
81628;BME280;71036;51.102;6.514;2023-07-22T12:45:41;100599.69;;;25.84;27.88
81628;BME280;71036;51.102;6.514;2023-07-22T12:48:07;100604.88;;;25.54;29.22
81628;BME280;71036;51.102;6.514;2023-07-22T12:50:32;100598.66;;;26.54;28.75
81628;BME280;71036;51.102;6.514;2023-07-22T12:52:59;100602.63;;;26.89;28.05
81628;BME280;71036;51.102;6.514;2023-07-22T12:55:24;100604.25;;;27.21;27.47